createdAt,value
2023-04-09T00:01:35.755Z,101024.94
2023-04-09T00:06:37.112Z,101018.09
2023-04-09T00:11:38.533Z,101022.69
2023-04-09T00:16:40.488Z,101019.28
2023-04-09T00:21:42.034Z,101018.59
2023-04-09T00:26:43.387Z,101017.38
2023-04-09T00:31:44.837Z,101019.47
2023-04-09T00:36:46.222Z,101014.16
2023-04-09T00:41:47.575Z,101021.16
2023-04-09T00:46:48.994Z,101003.69
2023-04-09T00:51:50.577Z,100988.94
2023-04-09T00:56:52.294Z,100998.38
2023-04-09T01:01:54.317Z,101000.19
2023-04-09T01:07:03.845Z,100994.63
2023-04-09T01:12:33.226Z,100999.19
2023-04-09T01:17:44.016Z,101000.53
2023-04-09T01:23:19.985Z,100996.56
2023-04-09T01:28:21.415Z,100997.13
2023-04-09T01:33:25.351Z,101006.84
2023-04-09T01:38:28.344Z,101006.16
2023-04-09T01:43:31.998Z,101005.03
2023-04-09T01:48:34.282Z,100979.63
2023-04-09T01:53:36.399Z,101007.50
2023-04-09T01:58:37.845Z,101001.50
2023-04-09T02:04:02.459Z,101003.41
2023-04-09T02:09:08.000Z,101004.81
2023-04-09T02:14:11.730Z,101003.97
2023-04-09T02:19:13.147Z,100992.03
2023-04-09T02:24:14.492Z,101008.69
2023-04-09T02:29:15.852Z,100997.41
2023-04-09T02:34:17.168Z,101001.47
2023-04-09T02:39:18.912Z,100997.03
2023-04-09T02:44:20.297Z,100995.31
2023-04-09T02:49:21.704Z,101000.91
2023-04-09T02:54:23.271Z,101001.00
2023-04-09T02:59:25.019Z,100999.38
2023-04-09T03:04:26.518Z,100992.50
2023-04-09T03:09:27.947Z,100986.63
2023-04-09T03:14:29.356Z,100982.16
2023-04-09T03:19:31.060Z,100985.09
2023-04-09T03:24:33.550Z,100979.78
2023-04-09T03:29:35.311Z,100981.69
2023-04-09T03:34:36.644Z,100982.53
2023-04-09T03:39:38.544Z,100979.22
2023-04-09T03:44:39.910Z,100977.59
2023-04-09T03:49:41.238Z,100982.25
2023-04-09T03:54:43.510Z,100977.88
2023-04-09T03:59:45.348Z,100979.00
2023-04-09T04:04:46.743Z,100985.22
2023-04-09T04:09:48.155Z,100980.09
2023-04-09T04:14:49.467Z,100967.41
2023-04-09T04:19:50.849Z,100980.38
2023-04-09T04:24:52.275Z,100979.53
2023-04-09T04:29:53.667Z,100982.28
2023-04-09T04:34:55.194Z,100982.47
2023-04-09T04:39:56.955Z,100986.81
2023-04-09T04:44:58.369Z,100984.31
2023-04-09T04:49:59.811Z,100985.38
2023-04-09T04:55:01.164Z,101004.44
2023-04-09T05:00:02.572Z,100995.03
2023-04-09T05:05:04.208Z,100984.59
2023-04-09T05:10:06.569Z,101003.66
2023-04-09T05:15:08.541Z,100999.22
2023-04-09T05:20:11.680Z,101003.50
2023-04-09T05:25:16.237Z,100999.81
2023-04-09T05:30:17.802Z,101005.25
2023-04-09T05:35:19.208Z,101005.56
2023-04-09T05:40:20.804Z,101007.69
2023-04-09T05:45:22.210Z,101010.75
2023-04-09T05:50:23.653Z,101014.75
2023-04-09T05:55:25.035Z,101015.34
2023-04-09T06:00:26.595Z,101014.28
2023-04-09T06:05:28.342Z,101012.22
2023-04-09T06:10:32.685Z,101019.53
2023-04-09T06:15:34.008Z,101018.13
2023-04-09T06:20:35.476Z,101017.75
2023-04-09T06:25:36.794Z,101016.31
2023-04-09T06:30:38.226Z,101025.53
2023-04-09T06:35:39.655Z,101022.28
2023-04-09T06:40:41.345Z,101022.25
2023-04-09T06:45:42.741Z,101031.28
2023-04-09T06:50:45.204Z,101030.69
2023-04-09T06:55:46.578Z,101035.22
2023-04-09T07:00:47.991Z,101026.66
2023-04-09T07:05:50.043Z,101034.56
2023-04-09T07:10:51.599Z,101021.06
2023-04-09T07:15:53.059Z,101025.41
2023-04-09T07:20:55.207Z,101021.34
2023-04-09T07:25:56.741Z,101034.00
2023-04-09T07:30:58.577Z,101030.34
2023-04-09T07:36:00.105Z,101034.59
2023-04-09T07:41:01.635Z,101034.50
2023-04-09T07:46:03.065Z,101034.41
2023-04-09T07:51:06.117Z,101037.06
2023-04-09T07:56:07.800Z,101052.41
2023-04-09T08:01:09.205Z,101046.19
2023-04-09T08:06:10.500Z,101063.47
2023-04-09T08:11:12.358Z,101040.69
2023-04-09T08:16:13.753Z,101051.28
2023-04-09T08:21:15.418Z,101053.38
2023-04-09T08:26:16.903Z,101058.91
2023-04-09T08:31:18.341Z,101054.47
2023-04-09T08:36:20.725Z,101058.38
2023-04-09T08:41:24.724Z,101065.94
2023-04-09T08:46:27.305Z,101055.38
2023-04-09T08:51:29.004Z,101058.09
2023-04-09T08:56:30.684Z,101070.91
2023-04-09T09:01:33.265Z,101071.16
2023-04-09T09:06:36.489Z,101067.78
2023-04-09T09:11:40.738Z,101062.63
2023-04-09T09:16:43.748Z,101063.53
2023-04-09T09:22:04.708Z,101057.53
2023-04-09T09:27:06.045Z,101058.16
2023-04-09T09:32:13.282Z,101071.09
2023-04-09T09:37:28.186Z,101062.34
2023-04-09T09:42:29.784Z,101056.78
2023-04-09T09:47:31.784Z,101055.81
2023-04-09T09:52:33.468Z,101057.00
2023-04-09T09:57:39.697Z,101046.94
2023-04-09T10:02:47.342Z,101048.44
2023-04-09T10:07:49.658Z,101048.47
2023-04-09T10:12:52.206Z,101033.78
2023-04-09T10:17:54.508Z,101020.25
2023-04-09T10:22:57.446Z,101025.03
2023-04-09T10:28:02.704Z,101019.97
2023-04-09T10:33:21.988Z,101013.75
2023-04-09T10:38:40.919Z,101023.91
2023-04-09T10:43:42.995Z,101020.66
2023-04-09T10:48:45.843Z,101009.88
2023-04-09T10:53:47.325Z,101013.09
2023-04-09T10:58:48.643Z,101008.78
2023-04-09T11:04:10.622Z,101014.38
2023-04-09T11:09:12.183Z,101005.47
2023-04-09T11:14:21.111Z,100999.63
2023-04-09T11:19:23.148Z,101003.00
2023-04-09T11:24:24.580Z,101002.72
2023-04-09T11:29:26.103Z,100984.50
2023-04-09T11:34:28.466Z,100996.06
2023-04-09T11:39:30.876Z,100989.63
2023-04-09T11:44:32.353Z,100992.41
2023-04-09T11:49:34.272Z,100988.91
2023-04-09T11:54:35.783Z,100984.00
2023-04-09T11:59:38.666Z,100986.88
2023-04-09T12:04:49.329Z,100987.16
2023-04-09T12:09:50.852Z,100987.13
2023-04-09T12:14:53.779Z,100981.19
2023-04-09T12:19:55.373Z,100970.50
2023-04-09T12:24:56.747Z,100979.06
2023-04-09T12:29:58.095Z,100972.88
2023-04-09T12:34:59.471Z,100973.38
2023-04-09T12:40:00.933Z,100961.97
2023-04-09T12:45:02.367Z,100951.38
2023-04-09T12:50:04.668Z,100947.56
2023-04-09T12:55:07.066Z,100942.56
2023-04-09T13:00:09.027Z,100941.91
2023-04-09T13:05:10.834Z,100938.25
2023-04-09T13:10:12.264Z,100918.78
2023-04-09T13:15:13.737Z,100923.28
2023-04-09T13:20:15.324Z,100916.69
2023-04-09T13:25:17.195Z,100914.84
2023-04-09T13:30:18.656Z,100910.28
2023-04-09T13:35:20.142Z,100896.13
2023-04-09T13:40:21.503Z,100906.03
2023-04-09T13:45:23.933Z,100897.25
2023-04-09T13:50:25.447Z,100884.50
2023-04-09T13:55:26.827Z,100878.66
2023-04-09T14:00:28.255Z,100885.13
2023-04-09T14:05:30.496Z,100855.38
2023-04-09T14:10:31.893Z,100873.41
2023-04-09T14:15:34.831Z,100868.94
2023-04-09T14:20:36.338Z,100869.34
2023-04-09T14:25:38.354Z,100868.75
2023-04-09T14:30:39.773Z,100869.88
2023-04-09T14:35:41.202Z,100870.69
2023-04-09T14:40:42.557Z,100865.94
2023-04-09T14:45:44.099Z,100856.03
2023-04-09T14:50:45.490Z,100849.25
2023-04-09T14:55:46.842Z,100835.28
2023-04-09T15:00:48.757Z,100841.44
2023-04-09T15:05:50.110Z,100833.66
2023-04-09T15:10:51.477Z,100830.50
2023-04-09T15:15:52.984Z,100829.44
2023-04-09T15:20:54.884Z,100829.63
2023-04-09T15:25:56.608Z,100823.19
2023-04-09T15:30:57.879Z,100829.03
2023-04-09T15:35:59.535Z,100822.31
2023-04-09T15:41:01.132Z,100820.38
2023-04-09T15:46:09.668Z,100824.53
2023-04-09T15:51:11.672Z,100817.06
2023-04-09T15:56:15.254Z,100809.72
2023-04-09T16:01:17.270Z,100812.81
2023-04-09T16:06:18.798Z,100806.88
2023-04-09T16:11:20.466Z,100813.66
2023-04-09T16:16:21.799Z,100810.13
2023-04-09T16:21:23.295Z,100801.09
2023-04-09T16:26:24.957Z,100792.78
2023-04-09T16:31:26.350Z,100794.03
2023-04-09T16:36:28.091Z,100804.34
2023-04-09T16:41:29.683Z,100802.94
2023-04-09T16:46:31.279Z,100801.69
2023-04-09T16:51:32.723Z,100800.41
2023-04-09T16:56:34.100Z,100798.13
2023-04-09T17:01:35.538Z,100802.91
2023-04-09T17:06:37.307Z,100799.38
2023-04-09T17:11:38.741Z,100788.63
2023-04-09T17:16:40.081Z,100792.59
2023-04-09T17:21:42.030Z,100792.69
2023-04-09T17:26:43.430Z,100799.75
2023-04-09T17:31:44.850Z,100798.47
2023-04-09T17:36:52.599Z,100803.03
2023-04-09T17:41:56.373Z,100805.28
2023-04-09T17:46:57.732Z,100812.03
2023-04-09T17:51:59.620Z,100810.88
2023-04-09T17:57:02.397Z,100805.22
2023-04-09T18:02:03.959Z,100800.91
2023-04-09T18:07:05.920Z,100820.66
2023-04-09T18:12:07.328Z,100830.19
2023-04-09T18:17:08.688Z,100827.31
2023-04-09T18:22:10.100Z,100831.78
2023-04-09T18:27:11.435Z,100836.78
2023-04-09T18:32:13.069Z,100845.47
2023-04-09T18:37:15.330Z,100836.97
2023-04-09T18:42:16.786Z,100845.50
2023-04-09T18:47:18.146Z,100854.03
2023-04-09T18:52:19.648Z,100848.75
2023-04-09T18:57:21.154Z,100858.00
2023-04-09T19:02:22.595Z,100861.16
2023-04-09T19:07:24.339Z,100849.50
2023-04-09T19:12:27.447Z,100852.22
2023-04-09T19:17:29.516Z,100855.50
2023-04-09T19:22:31.066Z,100868.78
2023-04-09T19:27:32.459Z,100866.47
2023-04-09T19:32:33.886Z,100855.28
2023-04-09T19:37:35.583Z,100854.00
2023-04-09T19:42:36.973Z,100877.41
2023-04-09T19:47:38.331Z,100861.88
2023-04-09T19:52:40.838Z,100862.38
2023-04-09T19:57:43.754Z,100858.47
2023-04-09T20:02:45.284Z,100855.22
2023-04-09T20:07:50.537Z,100859.56
2023-04-09T20:12:52.339Z,100861.53
2023-04-09T20:17:54.128Z,100861.97
2023-04-09T20:22:57.497Z,100852.03
2023-04-09T20:27:59.057Z,100857.59
2023-04-09T20:33:01.274Z,100852.25
2023-04-09T20:38:03.758Z,100867.28
2023-04-09T20:43:05.225Z,100859.88
2023-04-09T20:48:06.603Z,100859.72
2023-04-09T20:53:08.095Z,100851.44
2023-04-09T20:58:09.507Z,100852.97
2023-04-09T21:03:11.099Z,100860.50
2023-04-09T21:08:15.328Z,100860.97
2023-04-09T21:13:16.632Z,100863.34
2023-04-09T21:18:18.133Z,100861.78
2023-04-09T21:23:19.765Z,100849.09
2023-04-09T21:28:21.103Z,100846.66
2023-04-09T21:33:22.482Z,100847.13
2023-04-09T21:38:23.844Z,100844.91
2023-04-09T21:43:29.069Z,100844.44
2023-04-09T21:48:31.099Z,100845.84
2023-04-09T21:53:32.577Z,100842.56
2023-04-09T21:58:34.711Z,100843.09
2023-04-09T22:03:36.290Z,100848.66
2023-04-09T22:08:46.040Z,100849.09
2023-04-09T22:13:57.540Z,100851.25
2023-04-09T22:18:59.040Z,100844.66
2023-04-09T22:24:01.451Z,100842.34
2023-04-09T22:29:04.291Z,100856.09
2023-04-09T22:34:19.881Z,100867.19
2023-04-09T22:39:22.503Z,100849.22
2023-04-09T22:44:24.682Z,100851.09
2023-04-09T22:49:26.400Z,100849.84
2023-04-09T22:54:29.906Z,100835.38
2023-04-09T22:59:40.223Z,100844.72
2023-04-09T23:04:42.319Z,100847.50
2023-04-09T23:09:46.479Z,100841.72
2023-04-09T23:14:49.379Z,100842.16
2023-04-09T23:19:52.437Z,100840.03
2023-04-09T23:24:53.755Z,100846.53
2023-04-09T23:29:56.242Z,100845.34
2023-04-09T23:34:58.886Z,100843.66
2023-04-09T23:40:00.337Z,100843.41
2023-04-09T23:45:04.199Z,100849.06
2023-04-09T23:50:07.472Z,100841.28
2023-04-09T23:55:09.474Z,100848.53
